• Join FlightAware (Why Join?)
  • Login
  • US Flag 
03:45PM EDT


 

Airport Tracker/Info


-or-


 

Live Flight TrackerFlight Track Log ✈ EJA829P ✈ 11-Nov-2013 ✈ KMCO - KFLL

Flight Track Log - Related Links

Times and Time Zones

All times are in EST time to prevent confusion due to time zone crossing. See the EJA829P flight status page for this flight to view local times or setup timezone preferences in your user account.

Time Position Orientation Groundspeed Altitude Reporting Facility
EST Latitude Longitude Course Direction KTS MPH feet Rate Location/Type
09:12AM 28.4333 -81.3333 50° Northeast 171 197 1,000  Level Orlando TRACON
09:13AM 28.4833 -81.2667 50° Northeast 242 278 4,900 1,680 Climbing Orlando TRACON
09:14AM 28.5167 -81.2000 60° Northeast 270 311 5,000  Climbing Orlando TRACON
09:15AM 28.4833 -81.1167 114° Southeast 274 315 5,000 1,860 Level Orlando TRACON
09:16AM 28.4333 -81.0500 130° Southeast 288 331 8,800 3,300 Climbing Orlando TRACON
09:19AM 28.3347 -80.8522 119° Southeast 312 359 16,900 2,880 Climbing Miami Center
09:20AM 28.2792 -80.7489 121° Southeast 325 374 18,900 1,020 Climbing Miami Center
09:21AM 28.1958 -80.6683 140° Southeast 373 429 19,000  Climbing Miami Center
09:22AM 28.1125 -80.5853 139° Southeast 387 445 19,000  Level Miami Center
09:23AM 28.0247 -80.5025 140° Southeast 398 458 19,000  Level Miami Center
09:24AM 27.9456 -80.4178 137° Southeast 398 458 19,000  Level Miami Center
09:25AM 27.8619 -80.3331 138° Southeast 405 466 19,000  Level Miami Center
09:26AM 27.7742 -80.2550 142° Southeast 405 466 19,000  Level Miami Center
09:27AM 27.6772 -80.2006 154° Southeast 399 459 19,000  Level Miami Center
09:28AM 27.5803 -80.1486 155° Southeast 392 451 19,000  Level Miami Center
09:29AM 27.4833 -80.0944 154° Southeast 387 445 19,000  Level Miami Center
09:30AM 27.3886 -80.0425 154° Southeast 382 440 19,000  Level Miami Center
09:31AM 27.2936 -79.9886 153° Southeast 382 440 19,000  Level Miami Center
09:32AM 27.1967 -79.9344 154° Southeast 382 440 19,000 -420 Level Miami Center
09:33AM 27.1017 -79.8808 153° Southeast 382 440 18,200 -1,080 Descending Miami Center
09:34AM 27.0089 -79.8294 154° Southeast 377 434 16,900 -1,440 Descending Miami Center
09:35AM 26.9181 -79.7781 153° Southeast 377 434 15,400 -960 Descending Miami Center
09:36AM 26.8250 -79.7269 154° Southeast 377 434 15,000 -240 Descending Miami Center
09:37AM 26.7297 -79.6944 163° South 371 427 15,000 -780 Level Miami Center
09:38AM 26.6642 -79.7278 204° Southwest 328 377 13,700 -2,040 Descending Miami Center
09:38AM 26.6431 -79.7364 200° South 334 384 13,000 -2,040 Descending Miami Center
09:39AM 26.5819 -79.7650 203° Southwest 313 360 11,600 -1,800 Descending Miami Center
09:39AM 26.5631 -79.7717 198° South 323 372 11,200 -1,980 Descending Miami Center
09:40AM 26.5039 -79.8028 205° Southwest 299 344 9,600 -1,920 Descending Miami Center
09:40AM 26.4933 -79.8069 199° South 314 361 9,300 -1,680 Descending Miami Center
09:41AM 26.4386 -79.8336 204° Southwest 279 321 8,100 -1,200 Descending Miami Center
09:41AM 26.4175 -79.8422 200° South 297 342 8,100 -120 Level Miami Center
09:42AM 26.3603 -79.8803 211° Southwest 280 322 8,000 -120 Descending Miami Center
09:42AM 26.3583 -79.8825 226° Southwest 286 329 8,000  Level Miami Center
09:43AM 26.2942 -79.9433 220° Southwest 281 323 8,000  Level Miami Center
09:44AM 26.2475 -79.9886 221° Southwest 276 318 8,000  Level Miami Center
09:44AM 26.2408 -79.9953 222° Southwest 276 318 8,000 -900 Level Miami Center
09:45AM 26.1833 -80.0539 222° Southwest 282 325 6,900 -1,200 Descending Miami Center
09:46AM 26.1611 -80.1158 248° West 268 308 6,000 -900 Descending Miami Center
09:46AM 26.1586 -80.1344 261° West 276 318 6,000 -540 Level Miami Center
09:47AM 26.1486 -80.2058 261° West 243 280 5,400 -840 Descending Miami Center
09:47AM 26.1506 -80.2081 314° West 264 304 5,200 -1,260 Descending Miami Center
09:48AM 26.1467 -80.2844 267° West 239 275 4,000 -960 Descending Miami Center
09:49AM 26.1242 -80.3531 250° West 234 269 3,400 -960 Descending Miami Center
09:50AM 26.0747 -80.3308 158° South 206 237 2,100 -840 Descending Miami Center
09:51AM 26.0739 -80.2753 91° East 150 173 1,800 -540 Descending Miami Center
09:52AM 26.0750 -80.2292 88° East 142 163 1,100 -780 Descending Miami Center
09:53AM 26.0736 -80.1944 93° East 110 127 400 -780 Descending Miami Center
09:55AM 26.0667 -80.1500 103° East  Level FlightAware Approximate
10:02AM 26.0726 -80.1527 103° East  Level Estimated